Terminal Aerodrome Forecast
Issued by NWS Amarillo, TX

Home | Current Version | Previous Version | Text Only | Print | Product List | Glossary On
Versions: 1 2 3 4 5 6 7 8 9 10 11 12 13 14 15 16 17
000
FTUS44 KAMA 210100 AAA
TAFGUY
TAF AMD
KGUY 210129Z 2101/2124 30009KT P6SM SCT100
     FM211100 34018KT P6SM SCT060
     FM211400 01015G26KT P6SM SCT080
     FM212000 03012KT P6SM SCT200=

USA.gov is the U.S. government's official web portal to all federal, state and local government web resources and services.